sensor_id;sensor_type;location;lat;lon;timestamp;P1;durP1;ratioP1;P2;durP2;ratioP2
66893;SDS011;53801;55.786;49.142;2023-07-24T00:00:13;6.88;;;3.25;;
66893;SDS011;53801;55.786;49.142;2023-07-24T00:02:39;6.57;;;3.50;;
66893;SDS011;53801;55.786;49.142;2023-07-24T00:05:04;6.20;;;3.50;;
66893;SDS011;53801;55.786;49.142;2023-07-24T00:07:30;6.03;;;3.20;;
66893;SDS011;53801;55.786;49.142;2023-07-24T00:09:56;6.13;;;3.40;;
66893;SDS011;53801;55.786;49.142;2023-07-24T00:12:21;7.88;;;3.70;;
66893;SDS011;53801;55.786;49.142;2023-07-24T00:14:47;5.50;;;3.50;;
66893;SDS011;53801;55.786;49.142;2023-07-24T00:17:12;6.50;;;3.97;;
66893;SDS011;53801;55.786;49.142;2023-07-24T00:19:38;5.22;;;3.70;;
66893;SDS011;53801;55.786;49.142;2023-07-24T00:22:03;5.00;;;3.60;;
66893;SDS011;53801;55.786;49.142;2023-07-24T00:24:29;6.10;;;3.97;;
66893;SDS011;53801;55.786;49.142;2023-07-24T00:26:55;5.53;;;3.70;;
66893;SDS011;53801;55.786;49.142;2023-07-24T00:29:20;5.60;;;3.53;;
66893;SDS011;53801;55.786;49.142;2023-07-24T00:31:46;6.67;;;3.40;;
66893;SDS011;53801;55.786;49.142;2023-07-24T00:34:11;7.00;;;3.42;;
66893;SDS011;53801;55.786;49.142;2023-07-24T00:36:37;5.07;;;3.30;;
66893;SDS011;53801;55.786;49.142;2023-07-24T00:39:02;9.37;;;5.23;;
66893;SDS011;53801;55.786;49.142;2023-07-24T00:41:28;8.00;;;5.13;;
66893;SDS011;53801;55.786;49.142;2023-07-24T00:43:53;7.40;;;4.97;;
66893;SDS011;53801;55.786;49.142;2023-07-24T00:46:19;6.93;;;4.57;;
66893;SDS011;53801;55.786;49.142;2023-07-24T00:48:45;7.07;;;4.40;;
66893;SDS011;53801;55.786;49.142;2023-07-24T00:51:10;5.47;;;4.10;;
66893;SDS011;53801;55.786;49.142;2023-07-24T00:53:36;7.03;;;4.40;;
66893;SDS011;53801;55.786;49.142;2023-07-24T00:56:01;8.82;;;4.80;;
66893;SDS011;53801;55.786;49.142;2023-07-24T00:58:27;5.93;;;4.40;;
66893;SDS011;53801;55.786;49.142;2023-07-24T01:00:53;10.10;;;4.35;;
66893;SDS011;53801;55.786;49.142;2023-07-24T01:03:19;7.90;;;4.10;;
66893;SDS011;53801;55.786;49.142;2023-07-24T01:05:44;7.97;;;4.17;;
66893;SDS011;53801;55.786;49.142;2023-07-24T01:08:10;6.27;;;3.60;;
66893;SDS011;53801;55.786;49.142;2023-07-24T01:10:35;11.53;;;4.13;;
66893;SDS011;53801;55.786;49.142;2023-07-24T01:13:14;6.05;;;3.45;;
66893;SDS011;53801;55.786;49.142;2023-07-24T01:18:15;5.97;;;3.50;;
66893;SDS011;53801;55.786;49.142;2023-07-24T01:20:53;7.80;;;4.00;;
66893;SDS011;53801;55.786;49.142;2023-07-24T01:25:55;5.37;;;3.80;;
66893;SDS011;53801;55.786;49.142;2023-07-24T01:28:21;6.40;;;3.80;;
66893;SDS011;53801;55.786;49.142;2023-07-24T01:30:47;6.67;;;3.90;;
66893;SDS011;53801;55.786;49.142;2023-07-24T01:33:12;6.33;;;3.80;;
66893;SDS011;53801;55.786;49.142;2023-07-24T01:35:39;7.45;;;3.53;;
66893;SDS011;53801;55.786;49.142;2023-07-24T01:38:05;5.93;;;3.75;;
66893;SDS011;53801;55.786;49.142;2023-07-24T01:40:30;6.40;;;3.87;;
66893;SDS011;53801;55.786;49.142;2023-07-24T01:42:56;7.38;;;3.70;;
66893;SDS011;53801;55.786;49.142;2023-07-24T01:45:24;5.22;;;3.60;;
66893;SDS011;53801;55.786;49.142;2023-07-24T01:47:50;11.63;;;3.47;;
66893;SDS011;53801;55.786;49.142;2023-07-24T01:50:15;5.97;;;3.70;;
66893;SDS011;53801;55.786;49.142;2023-07-24T01:52:41;7.63;;;3.85;;
66893;SDS011;53801;55.786;49.142;2023-07-24T01:55:06;6.00;;;3.27;;
66893;SDS011;53801;55.786;49.142;2023-07-24T01:57:32;6.03;;;3.33;;
66893;SDS011;53801;55.786;49.142;2023-07-24T01:59:57;4.10;;;3.20;;
66893;SDS011;53801;55.786;49.142;2023-07-24T02:02:23;6.80;;;3.30;;
66893;SDS011;53801;55.786;49.142;2023-07-24T02:04:48;6.73;;;3.30;;
66893;SDS011;53801;55.786;49.142;2023-07-24T02:07:14;6.07;;;3.47;;
66893;SDS011;53801;55.786;49.142;2023-07-24T02:09:39;4.50;;;3.17;;
66893;SDS011;53801;55.786;49.142;2023-07-24T02:12:05;6.43;;;4.13;;
66893;SDS011;53801;55.786;49.142;2023-07-24T02:14:31;7.87;;;3.27;;
66893;SDS011;53801;55.786;49.142;2023-07-24T02:16:56;7.78;;;2.80;;
66893;SDS011;53801;55.786;49.142;2023-07-24T02:19:22;3.75;;;3.05;;
66893;SDS011;53801;55.786;49.142;2023-07-24T02:21:47;4.32;;;3.10;;
66893;SDS011;53801;55.786;49.142;2023-07-24T02:24:13;5.37;;;2.70;;
66893;SDS011;53801;55.786;49.142;2023-07-24T02:26:38;5.87;;;3.03;;
66893;SDS011;53801;55.786;49.142;2023-07-24T02:29:04;4.87;;;3.00;;
66893;SDS011;53801;55.786;49.142;2023-07-24T02:31:29;3.92;;;2.80;;
66893;SDS011;53801;55.786;49.142;2023-07-24T02:33:55;5.23;;;2.83;;
66893;SDS011;53801;55.786;49.142;2023-07-24T02:36:20;5.93;;;3.00;;
66893;SDS011;53801;55.786;49.142;2023-07-24T02:38:45;6.07;;;3.20;;
66893;SDS011;53801;55.786;49.142;2023-07-24T02:41:11;4.63;;;3.10;;
66893;SDS011;53801;55.786;49.142;2023-07-24T02:43:36;3.97;;;2.92;;
66893;SDS011;53801;55.786;49.142;2023-07-24T02:46:02;6.07;;;3.10;;
66893;SDS011;53801;55.786;49.142;2023-07-24T02:48:28;5.13;;;3.38;;
66893;SDS011;53801;55.786;49.142;2023-07-24T02:50:53;4.57;;;3.15;;
66893;SDS011;53801;55.786;49.142;2023-07-24T02:53:19;7.90;;;3.30;;
66893;SDS011;53801;55.786;49.142;2023-07-24T02:55:44;6.97;;;3.07;;
66893;SDS011;53801;55.786;49.142;2023-07-24T02:58:13;5.72;;;3.00;;
66893;SDS011;53801;55.786;49.142;2023-07-24T03:00:39;4.90;;;3.22;;
66893;SDS011;53801;55.786;49.142;2023-07-24T03:03:04;6.60;;;3.03;;
66893;SDS011;53801;55.786;49.142;2023-07-24T03:05:30;4.77;;;3.33;;
66893;SDS011;53801;55.786;49.142;2023-07-24T03:07:55;5.77;;;3.53;;
66893;SDS011;53801;55.786;49.142;2023-07-24T03:10:21;6.15;;;3.53;;
66893;SDS011;53801;55.786;49.142;2023-07-24T03:12:46;4.23;;;3.10;;
66893;SDS011;53801;55.786;49.142;2023-07-24T03:15:11;6.03;;;3.97;;
66893;SDS011;53801;55.786;49.142;2023-07-24T03:17:37;6.47;;;3.40;;
66893;SDS011;53801;55.786;49.142;2023-07-24T03:20:09;5.47;;;3.37;;
66893;SDS011;53801;55.786;49.142;2023-07-24T03:22:35;6.18;;;3.17;;
66893;SDS011;53801;55.786;49.142;2023-07-24T03:25:01;5.97;;;3.10;;
66893;SDS011;53801;55.786;49.142;2023-07-24T03:27:26;6.82;;;3.10;;
66893;SDS011;53801;55.786;49.142;2023-07-24T03:29:51;5.10;;;3.10;;
66893;SDS011;53801;55.786;49.142;2023-07-24T03:32:17;6.57;;;3.33;;
66893;SDS011;53801;55.786;49.142;2023-07-24T03:34:42;5.85;;;3.30;;
66893;SDS011;53801;55.786;49.142;2023-07-24T03:37:08;5.13;;;3.33;;
66893;SDS011;53801;55.786;49.142;2023-07-24T03:39:33;7.13;;;3.17;;
66893;SDS011;53801;55.786;49.142;2023-07-24T03:41:59;6.87;;;3.30;;
66893;SDS011;53801;55.786;49.142;2023-07-24T03:44:24;5.32;;;3.50;;
66893;SDS011;53801;55.786;49.142;2023-07-24T03:46:50;5.22;;;3.42;;
66893;SDS011;53801;55.786;49.142;2023-07-24T03:49:15;6.60;;;3.43;;
66893;SDS011;53801;55.786;49.142;2023-07-24T03:51:40;5.73;;;2.97;;
66893;SDS011;53801;55.786;49.142;2023-07-24T03:54:06;5.95;;;3.13;;
66893;SDS011;53801;55.786;49.142;2023-07-24T03:56:31;5.65;;;3.10;;
66893;SDS011;53801;55.786;49.142;2023-07-24T03:58:57;8.90;;;3.70;;
66893;SDS011;53801;55.786;49.142;2023-07-24T04:01:22;5.47;;;3.23;;
66893;SDS011;53801;55.786;49.142;2023-07-24T04:03:48;6.50;;;3.47;;
66893;SDS011;53801;55.786;49.142;2023-07-24T04:06:13;8.88;;;3.05;;
66893;SDS011;53801;55.786;49.142;2023-07-24T04:08:39;4.37;;;3.30;;
66893;SDS011;53801;55.786;49.142;2023-07-24T04:11:04;6.07;;;2.90;;
66893;SDS011;53801;55.786;49.142;2023-07-24T04:13:30;5.25;;;3.38;;
66893;SDS011;53801;55.786;49.142;2023-07-24T04:15:56;7.43;;;3.50;;
66893;SDS011;53801;55.786;49.142;2023-07-24T04:18:22;7.25;;;3.10;;
66893;SDS011;53801;55.786;49.142;2023-07-24T04:20:48;6.13;;;3.23;;
66893;SDS011;53801;55.786;49.142;2023-07-24T04:23:13;4.67;;;3.60;;
66893;SDS011;53801;55.786;49.142;2023-07-24T04:25:39;8.20;;;3.33;;
66893;SDS011;53801;55.786;49.142;2023-07-24T04:28:04;8.10;;;3.60;;
66893;SDS011;53801;55.786;49.142;2023-07-24T04:30:29;7.37;;;3.63;;
66893;SDS011;53801;55.786;49.142;2023-07-24T04:32:55;7.93;;;3.50;;
66893;SDS011;53801;55.786;49.142;2023-07-24T04:35:20;7.17;;;3.53;;
66893;SDS011;53801;55.786;49.142;2023-07-24T04:37:46;9.57;;;3.30;;
66893;SDS011;53801;55.786;49.142;2023-07-24T04:40:11;9.33;;;3.73;;
66893;SDS011;53801;55.786;49.142;2023-07-24T04:42:37;9.17;;;3.83;;
66893;SDS011;53801;55.786;49.142;2023-07-24T04:45:03;8.30;;;3.70;;
66893;SDS011;53801;55.786;49.142;2023-07-24T04:47:31;10.40;;;3.45;;
66893;SDS011;53801;55.786;49.142;2023-07-24T04:49:56;10.93;;;3.73;;
66893;SDS011;53801;55.786;49.142;2023-07-24T04:52:22;6.63;;;3.70;;
66893;SDS011;53801;55.786;49.142;2023-07-24T04:54:47;5.20;;;3.90;;
66893;SDS011;53801;55.786;49.142;2023-07-24T04:57:13;8.27;;;3.83;;
66893;SDS011;53801;55.786;49.142;2023-07-24T04:59:38;6.53;;;4.30;;
66893;SDS011;53801;55.786;49.142;2023-07-24T05:02:04;7.63;;;4.03;;
66893;SDS011;53801;55.786;49.142;2023-07-24T05:04:29;5.67;;;3.90;;
66893;SDS011;53801;55.786;49.142;2023-07-24T05:06:57;7.90;;;4.10;;
66893;SDS011;53801;55.786;49.142;2023-07-24T05:09:23;7.07;;;4.40;;
66893;SDS011;53801;55.786;49.142;2023-07-24T05:11:48;9.18;;;4.35;;
66893;SDS011;53801;55.786;49.142;2023-07-24T05:14:14;8.57;;;3.97;;
66893;SDS011;53801;55.786;49.142;2023-07-24T05:16:39;9.57;;;4.00;;
66893;SDS011;53801;55.786;49.142;2023-07-24T05:19:12;8.63;;;4.05;;
66893;SDS011;53801;55.786;49.142;2023-07-24T05:21:50;8.77;;;4.00;;
66893;SDS011;53801;55.786;49.142;2023-07-24T05:24:16;7.38;;;4.38;;
66893;SDS011;53801;55.786;49.142;2023-07-24T05:26:41;9.67;;;4.57;;
66893;SDS011;53801;55.786;49.142;2023-07-24T05:29:07;11.10;;;4.80;;
66893;SDS011;53801;55.786;49.142;2023-07-24T05:31:35;12.67;;;4.47;;
66893;SDS011;53801;55.786;49.142;2023-07-24T05:34:01;10.63;;;5.80;;
66893;SDS011;53801;55.786;49.142;2023-07-24T05:36:27;10.57;;;5.60;;
66893;SDS011;53801;55.786;49.142;2023-07-24T05:38:53;13.57;;;6.10;;
66893;SDS011;53801;55.786;49.142;2023-07-24T05:41:18;9.77;;;6.53;;
66893;SDS011;53801;55.786;49.142;2023-07-24T05:43:44;13.45;;;6.35;;
66893;SDS011;53801;55.786;49.142;2023-07-24T05:46:09;9.23;;;4.87;;
66893;SDS011;53801;55.786;49.142;2023-07-24T05:48:34;8.57;;;5.57;;
66893;SDS011;53801;55.786;49.142;2023-07-24T05:51:00;11.50;;;6.50;;
66893;SDS011;53801;55.786;49.142;2023-07-24T05:53:25;11.57;;;7.00;;
66893;SDS011;53801;55.786;49.142;2023-07-24T05:55:56;12.48;;;6.95;;
66893;SDS011;53801;55.786;49.142;2023-07-24T05:58:21;13.57;;;7.30;;
66893;SDS011;53801;55.786;49.142;2023-07-24T06:00:47;10.98;;;7.50;;
66893;SDS011;53801;55.786;49.142;2023-07-24T06:03:12;15.17;;;8.87;;
66893;SDS011;53801;55.786;49.142;2023-07-24T06:05:37;13.20;;;8.20;;
66893;SDS011;53801;55.786;49.142;2023-07-24T06:08:03;17.17;;;8.37;;
66893;SDS011;53801;55.786;49.142;2023-07-24T06:10:28;9.57;;;8.67;;
66893;SDS011;53801;55.786;49.142;2023-07-24T06:12:54;18.25;;;12.98;;
66893;SDS011;53801;55.786;49.142;2023-07-24T06:15:19;12.17;;;9.30;;
66893;SDS011;53801;55.786;49.142;2023-07-24T06:17:45;9.10;;;8.27;;
66893;SDS011;53801;55.786;49.142;2023-07-24T06:20:10;11.10;;;6.53;;
66893;SDS011;53801;55.786;49.142;2023-07-24T06:22:35;8.43;;;5.80;;
66893;SDS011;53801;55.786;49.142;2023-07-24T06:25:01;11.23;;;5.80;;
66893;SDS011;53801;55.786;49.142;2023-07-24T06:27:27;8.18;;;5.28;;
66893;SDS011;53801;55.786;49.142;2023-07-24T06:29:53;6.13;;;4.93;;
66893;SDS011;53801;55.786;49.142;2023-07-24T06:32:18;8.00;;;4.80;;
66893;SDS011;53801;55.786;49.142;2023-07-24T06:34:44;4.40;;;4.00;;
66893;SDS011;53801;55.786;49.142;2023-07-24T06:37:09;4.67;;;4.20;;
66893;SDS011;53801;55.786;49.142;2023-07-24T06:39:35;5.32;;;3.70;;
66893;SDS011;53801;55.786;49.142;2023-07-24T06:42:00;4.67;;;4.00;;
66893;SDS011;53801;55.786;49.142;2023-07-24T06:44:26;6.20;;;3.70;;
66893;SDS011;53801;55.786;49.142;2023-07-24T06:46:51;7.20;;;3.15;;
66893;SDS011;53801;55.786;49.142;2023-07-24T06:49:16;5.72;;;3.35;;
66893;SDS011;53801;55.786;49.142;2023-07-24T06:51:42;7.30;;;3.13;;
66893;SDS011;53801;55.786;49.142;2023-07-24T06:54:07;5.87;;;3.30;;
66893;SDS011;53801;55.786;49.142;2023-07-24T06:56:33;10.23;;;3.70;;
66893;SDS011;53801;55.786;49.142;2023-07-24T06:58:58;13.13;;;4.00;;
66893;SDS011;53801;55.786;49.142;2023-07-24T07:01:24;7.23;;;3.50;;
66893;SDS011;53801;55.786;49.142;2023-07-24T07:03:49;6.07;;;3.33;;
66893;SDS011;53801;55.786;49.142;2023-07-24T07:06:15;7.30;;;3.70;;
66893;SDS011;53801;55.786;49.142;2023-07-24T07:08:40;9.45;;;4.10;;
66893;SDS011;53801;55.786;49.142;2023-07-24T07:11:06;10.43;;;4.10;;
66893;SDS011;53801;55.786;49.142;2023-07-24T07:13:32;4.82;;;3.40;;
66893;SDS011;53801;55.786;49.142;2023-07-24T07:15:57;5.93;;;3.27;;
66893;SDS011;53801;55.786;49.142;2023-07-24T07:18:23;7.67;;;3.30;;
66893;SDS011;53801;55.786;49.142;2023-07-24T07:20:52;7.20;;;3.47;;
66893;SDS011;53801;55.786;49.142;2023-07-24T07:25:55;13.73;;;4.30;;
66893;SDS011;53801;55.786;49.142;2023-07-24T07:28:21;6.87;;;3.30;;
66893;SDS011;53801;55.786;49.142;2023-07-24T07:30:49;8.77;;;3.25;;
66893;SDS011;53801;55.786;49.142;2023-07-24T07:35:45;1.23;;;0.70;;
66893;SDS011;53801;55.786;49.142;2023-07-24T07:38:10;0.57;;;0.40;;
66893;SDS011;53801;55.786;49.142;2023-07-24T07:40:37;0.60;;;0.40;;
66893;SDS011;53801;55.786;49.142;2023-07-24T07:43:03;0.73;;;0.63;;
66893;SDS011;53801;55.786;49.142;2023-07-24T07:45:28;0.50;;;0.30;;
66893;SDS011;53801;55.786;49.142;2023-07-24T07:47:54;0.60;;;0.40;;
66893;SDS011;53801;55.786;49.142;2023-07-24T07:50:19;2.80;;;0.90;;
66893;SDS011;53801;55.786;49.142;2023-07-24T07:52:45;0.60;;;0.40;;
66893;SDS011;53801;55.786;49.142;2023-07-24T07:55:10;0.83;;;0.50;;
66893;SDS011;53801;55.786;49.142;2023-07-24T07:57:36;0.80;;;0.40;;
66893;SDS011;53801;55.786;49.142;2023-07-24T08:00:02;0.50;;;0.30;;
66893;SDS011;53801;55.786;49.142;2023-07-24T08:02:35;0.75;;;0.40;;
66893;SDS011;53801;55.786;49.142;2023-07-24T08:05:05;1.15;;;0.65;;
66893;SDS011;53801;55.786;49.142;2023-07-24T08:07:30;0.70;;;0.30;;
66893;SDS011;53801;55.786;49.142;2023-07-24T08:09:56;0.60;;;0.40;;
66893;SDS011;53801;55.786;49.142;2023-07-24T08:12:21;0.83;;;0.63;;
66893;SDS011;53801;55.786;49.142;2023-07-24T08:14:47;0.70;;;0.50;;
66893;SDS011;53801;55.786;49.142;2023-07-24T08:17:12;0.57;;;0.40;;
66893;SDS011;53801;55.786;49.142;2023-07-24T08:19:38;0.57;;;0.35;;
66893;SDS011;53801;55.786;49.142;2023-07-24T08:22:03;0.53;;;0.40;;
66893;SDS011;53801;55.786;49.142;2023-07-24T08:24:33;0.70;;;0.40;;
66893;SDS011;53801;55.786;49.142;2023-07-24T08:26:58;0.90;;;0.80;;
66893;SDS011;53801;55.786;49.142;2023-07-24T08:29:24;1.67;;;0.50;;
66893;SDS011;53801;55.786;49.142;2023-07-24T08:31:49;1.00;;;0.43;;
66893;SDS011;53801;55.786;49.142;2023-07-24T08:36:58;3.53;;;2.38;;
66893;SDS011;53801;55.786;49.142;2023-07-24T08:39:24;1.35;;;0.60;;
66893;SDS011;53801;55.786;49.142;2023-07-24T08:41:49;0.40;;;0.30;;
66893;SDS011;53801;55.786;49.142;2023-07-24T08:44:15;0.80;;;0.63;;
66893;SDS011;53801;55.786;49.142;2023-07-24T08:46:41;1.00;;;0.52;;
66893;SDS011;53801;55.786;49.142;2023-07-24T08:49:15;1.60;;;1.30;;
66893;SDS011;53801;55.786;49.142;2023-07-24T08:51:41;0.70;;;0.68;;
66893;SDS011;53801;55.786;49.142;2023-07-24T08:54:07;1.83;;;1.23;;
66893;SDS011;53801;55.786;49.142;2023-07-24T08:56:33;0.60;;;0.40;;
66893;SDS011;53801;55.786;49.142;2023-07-24T08:58:59;1.33;;;1.05;;
66893;SDS011;53801;55.786;49.142;2023-07-24T09:01:25;1.35;;;0.82;;
66893;SDS011;53801;55.786;49.142;2023-07-24T09:03:50;1.48;;;0.98;;
66893;SDS011;53801;55.786;49.142;2023-07-24T09:06:19;0.70;;;0.53;;
66893;SDS011;53801;55.786;49.142;2023-07-24T09:08:53;1.85;;;0.85;;
66893;SDS011;53801;55.786;49.142;2023-07-24T09:11:18;0.70;;;0.60;;
66893;SDS011;53801;55.786;49.142;2023-07-24T09:13:44;1.02;;;0.82;;
66893;SDS011;53801;55.786;49.142;2023-07-24T09:16:10;0.80;;;0.60;;
66893;SDS011;53801;55.786;49.142;2023-07-24T09:18:45;1.02;;;0.82;;
66893;SDS011;53801;55.786;49.142;2023-07-24T09:21:11;1.40;;;0.90;;
66893;SDS011;53801;55.786;49.142;2023-07-24T09:23:37;0.73;;;0.60;;
66893;SDS011;53801;55.786;49.142;2023-07-24T09:26:09;1.05;;;0.80;;
66893;SDS011;53801;55.786;49.142;2023-07-24T09:28:34;0.90;;;0.70;;
66893;SDS011;53801;55.786;49.142;2023-07-24T09:31:00;1.17;;;1.08;;
66893;SDS011;53801;55.786;49.142;2023-07-24T09:36:01;1.20;;;0.90;;
66893;SDS011;53801;55.786;49.142;2023-07-24T09:38:28;0.77;;;0.73;;
66893;SDS011;53801;55.786;49.142;2023-07-24T09:40:55;1.02;;;0.93;;
66893;SDS011;53801;55.786;49.142;2023-07-24T09:43:21;1.30;;;1.20;;
66893;SDS011;53801;55.786;49.142;2023-07-24T09:45:48;1.30;;;1.17;;
66893;SDS011;53801;55.786;49.142;2023-07-24T09:48:14;3.90;;;2.17;;
66893;SDS011;53801;55.786;49.142;2023-07-24T09:50:41;2.22;;;2.03;;
66893;SDS011;53801;55.786;49.142;2023-07-24T09:53:09;2.33;;;2.05;;
66893;SDS011;53801;55.786;49.142;2023-07-24T09:55:39;2.17;;;1.98;;
66893;SDS011;53801;55.786;49.142;2023-07-24T09:58:08;2.33;;;2.20;;
66893;SDS011;53801;55.786;49.142;2023-07-24T10:00:36;2.27;;;2.17;;
66893;SDS011;53801;55.786;49.142;2023-07-24T10:03:02;2.60;;;2.40;;
66893;SDS011;53801;55.786;49.142;2023-07-24T10:05:28;3.67;;;3.33;;
66893;SDS011;53801;55.786;49.142;2023-07-24T10:07:54;3.15;;;2.90;;
66893;SDS011;53801;55.786;49.142;2023-07-24T10:10:21;2.95;;;2.75;;
66893;SDS011;53801;55.786;49.142;2023-07-24T10:12:47;2.60;;;2.40;;
66893;SDS011;53801;55.786;49.142;2023-07-24T10:15:13;17.52;;;2.50;;
66893;SDS011;53801;55.786;49.142;2023-07-24T10:17:40;2.50;;;2.25;;
66893;SDS011;53801;55.786;49.142;2023-07-24T10:20:12;2.38;;;2.17;;
66893;SDS011;53801;55.786;49.142;2023-07-24T10:22:40;2.47;;;2.28;;
66893;SDS011;53801;55.786;49.142;2023-07-24T10:25:07;2.00;;;1.90;;
66893;SDS011;53801;55.786;49.142;2023-07-24T10:27:35;1.83;;;1.73;;
66893;SDS011;53801;55.786;49.142;2023-07-24T10:30:04;1.90;;;1.80;;
66893;SDS011;53801;55.786;49.142;2023-07-24T10:32:32;2.25;;;2.08;;
66893;SDS011;53801;55.786;49.142;2023-07-24T10:37:33;3.95;;;1.65;;
66893;SDS011;53801;55.786;49.142;2023-07-24T10:40:00;1.17;;;1.07;;
66893;SDS011;53801;55.786;49.142;2023-07-24T10:42:29;1.52;;;1.42;;
66893;SDS011;53801;55.786;49.142;2023-07-24T10:45:37;1.20;;;1.10;;
66893;SDS011;53801;55.786;49.142;2023-07-24T10:47:47;1.10;;;1.00;;
66893;SDS011;53801;55.786;49.142;2023-07-24T10:50:12;1.30;;;1.00;;
66893;SDS011;53801;55.786;49.142;2023-07-24T10:52:38;0.93;;;0.80;;
66893;SDS011;53801;55.786;49.142;2023-07-24T10:55:04;1.10;;;0.90;;
66893;SDS011;53801;55.786;49.142;2023-07-24T10:57:32;1.80;;;1.10;;
66893;SDS011;53801;55.786;49.142;2023-07-24T10:59:58;1.00;;;0.90;;
66893;SDS011;53801;55.786;49.142;2023-07-24T11:02:24;1.10;;;1.00;;
66893;SDS011;53801;55.786;49.142;2023-07-24T11:04:50;1.20;;;1.03;;
66893;SDS011;53801;55.786;49.142;2023-07-24T11:07:15;1.83;;;1.40;;
66893;SDS011;53801;55.786;49.142;2023-07-24T11:09:41;1.13;;;1.00;;
66893;SDS011;53801;55.786;49.142;2023-07-24T11:12:11;1.15;;;0.98;;
66893;SDS011;53801;55.786;49.142;2023-07-24T11:14:47;1.10;;;1.00;;
66893;SDS011;53801;55.786;49.142;2023-07-24T11:17:12;0.90;;;0.88;;
66893;SDS011;53801;55.786;49.142;2023-07-24T11:19:38;1.03;;;0.93;;
66893;SDS011;53801;55.786;49.142;2023-07-24T11:22:04;1.63;;;0.90;;
66893;SDS011;53801;55.786;49.142;2023-07-24T11:24:29;0.90;;;0.70;;
66893;SDS011;53801;55.786;49.142;2023-07-24T11:26:55;0.90;;;0.80;;
66893;SDS011;53801;55.786;49.142;2023-07-24T11:29:20;0.90;;;0.77;;
66893;SDS011;53801;55.786;49.142;2023-07-24T11:31:46;1.30;;;1.10;;
66893;SDS011;53801;55.786;49.142;2023-07-24T11:34:12;1.60;;;1.15;;
66893;SDS011;53801;55.786;49.142;2023-07-24T11:36:38;1.17;;;1.08;;
66893;SDS011;53801;55.786;49.142;2023-07-24T11:39:03;1.00;;;0.90;;
66893;SDS011;53801;55.786;49.142;2023-07-24T11:41:29;1.23;;;0.70;;
66893;SDS011;53801;55.786;49.142;2023-07-24T11:43:54;2.50;;;1.30;;
66893;SDS011;53801;55.786;49.142;2023-07-24T11:46:27;1.00;;;0.97;;
66893;SDS011;53801;55.786;49.142;2023-07-24T11:48:53;1.77;;;1.40;;
66893;SDS011;53801;55.786;49.142;2023-07-24T11:51:19;1.35;;;1.00;;
66893;SDS011;53801;55.786;49.142;2023-07-24T11:53:44;0.70;;;0.60;;
66893;SDS011;53801;55.786;49.142;2023-07-24T11:56:13;2.60;;;2.00;;
66893;SDS011;53801;55.786;49.142;2023-07-24T11:58:39;1.20;;;1.00;;
66893;SDS011;53801;55.786;49.142;2023-07-24T12:01:05;1.30;;;1.20;;
66893;SDS011;53801;55.786;49.142;2023-07-24T12:03:30;1.17;;;1.08;;
66893;SDS011;53801;55.786;49.142;2023-07-24T12:05:56;1.70;;;0.90;;
66893;SDS011;53801;55.786;49.142;2023-07-24T12:08:29;1.20;;;1.10;;
66893;SDS011;53801;55.786;49.142;2023-07-24T12:10:56;0.93;;;0.80;;
66893;SDS011;53801;55.786;49.142;2023-07-24T12:13:21;0.90;;;0.80;;
66893;SDS011;53801;55.786;49.142;2023-07-24T12:15:48;1.20;;;0.98;;
66893;SDS011;53801;55.786;49.142;2023-07-24T12:18:14;0.70;;;0.68;;
66893;SDS011;53801;55.786;49.142;2023-07-24T12:20:40;2.17;;;1.00;;
66893;SDS011;53801;55.786;49.142;2023-07-24T12:23:05;1.15;;;0.90;;
66893;SDS011;53801;55.786;49.142;2023-07-24T12:25:30;0.73;;;0.60;;
66893;SDS011;53801;55.786;49.142;2023-07-24T12:27:56;0.90;;;0.70;;
66893;SDS011;53801;55.786;49.142;2023-07-24T12:30:21;1.50;;;1.00;;
66893;SDS011;53801;55.786;49.142;2023-07-24T12:32:47;1.17;;;1.08;;
66893;SDS011;53801;55.786;49.142;2023-07-24T12:35:12;0.83;;;0.80;;
66893;SDS011;53801;55.786;49.142;2023-07-24T12:37:38;1.00;;;0.90;;
66893;SDS011;53801;55.786;49.142;2023-07-24T12:40:07;1.15;;;1.02;;
66893;SDS011;53801;55.786;49.142;2023-07-24T12:42:33;2.58;;;0.80;;
66893;SDS011;53801;55.786;49.142;2023-07-24T12:44:58;1.17;;;0.73;;
66893;SDS011;53801;55.786;49.142;2023-07-24T12:47:24;1.20;;;0.87;;
66893;SDS011;53801;55.786;49.142;2023-07-24T12:49:52;0.93;;;0.80;;
66893;SDS011;53801;55.786;49.142;2023-07-24T12:52:20;1.00;;;0.70;;
66893;SDS011;53801;55.786;49.142;2023-07-24T12:54:46;1.10;;;0.73;;
66893;SDS011;53801;55.786;49.142;2023-07-24T12:57:12;0.70;;;0.60;;
66893;SDS011;53801;55.786;49.142;2023-07-24T12:59:37;0.90;;;0.80;;
66893;SDS011;53801;55.786;49.142;2023-07-24T13:02:03;1.00;;;0.80;;
66893;SDS011;53801;55.786;49.142;2023-07-24T13:04:34;1.17;;;0.93;;
66893;SDS011;53801;55.786;49.142;2023-07-24T13:07:00;0.80;;;0.80;;
66893;SDS011;53801;55.786;49.142;2023-07-24T13:09:26;1.10;;;1.00;;
66893;SDS011;53801;55.786;49.142;2023-07-24T13:11:53;5.30;;;3.13;;
66893;SDS011;53801;55.786;49.142;2023-07-24T13:14:22;10.05;;;3.58;;
66893;SDS011;53801;55.786;49.142;2023-07-24T13:16:49;6.45;;;3.20;;
66893;SDS011;53801;55.786;49.142;2023-07-24T13:19:15;7.30;;;2.88;;
66893;SDS011;53801;55.786;49.142;2023-07-24T13:21:46;6.47;;;3.05;;
66893;SDS011;53801;55.786;49.142;2023-07-24T13:24:15;3.50;;;2.55;;
66893;SDS011;53801;55.786;49.142;2023-07-24T13:26:40;5.18;;;3.03;;
66893;SDS011;53801;55.786;49.142;2023-07-24T13:29:27;3.05;;;2.65;;
66893;SDS011;53801;55.786;49.142;2023-07-24T13:31:53;8.63;;;2.70;;
66893;SDS011;53801;55.786;49.142;2023-07-24T13:34:19;4.50;;;2.50;;
66893;SDS011;53801;55.786;49.142;2023-07-24T13:36:48;3.90;;;2.47;;
66893;SDS011;53801;55.786;49.142;2023-07-24T13:39:16;3.88;;;2.30;;
66893;SDS011;53801;55.786;49.142;2023-07-24T13:41:42;4.65;;;3.50;;
66893;SDS011;53801;55.786;49.142;2023-07-24T13:44:08;6.50;;;2.77;;
66893;SDS011;53801;55.786;49.142;2023-07-24T13:46:33;6.03;;;2.43;;
66893;SDS011;53801;55.786;49.142;2023-07-24T13:48:59;4.90;;;2.85;;
66893;SDS011;53801;55.786;49.142;2023-07-24T13:51:24;6.50;;;2.57;;
66893;SDS011;53801;55.786;49.142;2023-07-24T13:53:53;3.22;;;2.30;;
66893;SDS011;53801;55.786;49.142;2023-07-24T13:56:19;5.60;;;2.88;;
66893;SDS011;53801;55.786;49.142;2023-07-24T13:58:50;2.97;;;2.50;;
66893;SDS011;53801;55.786;49.142;2023-07-24T14:01:15;4.07;;;2.42;;
66893;SDS011;53801;55.786;49.142;2023-07-24T14:03:41;5.90;;;2.83;;
66893;SDS011;53801;55.786;49.142;2023-07-24T14:06:06;4.97;;;2.78;;
66893;SDS011;53801;55.786;49.142;2023-07-24T14:08:32;9.73;;;2.83;;
66893;SDS011;53801;55.786;49.142;2023-07-24T14:10:57;5.87;;;2.47;;
66893;SDS011;53801;55.786;49.142;2023-07-24T14:13:23;6.90;;;2.40;;
66893;SDS011;53801;55.786;49.142;2023-07-24T14:15:48;4.68;;;2.70;;
66893;SDS011;53801;55.786;49.142;2023-07-24T14:18:14;11.60;;;3.10;;
66893;SDS011;53801;55.786;49.142;2023-07-24T14:20:39;6.23;;;2.80;;
66893;SDS011;53801;55.786;49.142;2023-07-24T14:23:06;4.05;;;2.22;;
66893;SDS011;53801;55.786;49.142;2023-07-24T14:25:31;6.22;;;2.67;;
66893;SDS011;53801;55.786;49.142;2023-07-24T14:27:57;12.00;;;2.80;;
66893;SDS011;53801;55.786;49.142;2023-07-24T14:30:22;6.70;;;2.40;;
66893;SDS011;53801;55.786;49.142;2023-07-24T14:32:48;6.47;;;2.50;;
66893;SDS011;53801;55.786;49.142;2023-07-24T14:35:15;0.60;;;0.50;;
66893;SDS011;53801;55.786;49.142;2023-07-24T14:37:40;3.65;;;0.70;;
66893;SDS011;53801;55.786;49.142;2023-07-24T14:40:06;0.60;;;0.50;;
66893;SDS011;53801;55.786;49.142;2023-07-24T14:42:34;0.50;;;0.35;;
66893;SDS011;53801;55.786;49.142;2023-07-24T14:45:00;0.63;;;0.40;;